sensor_id;sensor_type;location;lat;lon;timestamp;pressure;altitude;pressure_sealevel;temperature;humidity
56928;BME280;60850;52.502;13.426;2023-03-23T00:00:53;100184.88;;;11.39;100.00
56928;BME280;60850;52.502;13.426;2023-03-23T00:03:20;100177.97;;;11.34;100.00
56928;BME280;60850;52.502;13.426;2023-03-23T00:05:48;100175.38;;;11.32;100.00
56928;BME280;60850;52.502;13.426;2023-03-23T00:08:17;100170.25;;;11.26;100.00
56928;BME280;60850;52.502;13.426;2023-03-23T00:10:50;100163.31;;;11.22;100.00
56928;BME280;60850;52.502;13.426;2023-03-23T00:13:18;100162.56;;;11.18;100.00
56928;BME280;60850;52.502;13.426;2023-03-23T00:15:46;100154.63;;;11.17;100.00
56928;BME280;60850;52.502;13.426;2023-03-23T00:18:15;100154.91;;;11.09;100.00
56928;BME280;60850;52.502;13.426;2023-03-23T00:20:48;100149.88;;;11.02;100.00
56928;BME280;60850;52.502;13.426;2023-03-23T00:23:19;100148.13;;;11.00;100.00
56928;BME280;60850;52.502;13.426;2023-03-23T00:25:51;100158.91;;;10.97;100.00
56928;BME280;60850;52.502;13.426;2023-03-23T00:28:22;100153.75;;;10.93;100.00
56928;BME280;60850;52.502;13.426;2023-03-23T00:30:55;100158.25;;;10.91;100.00
56928;BME280;60850;52.502;13.426;2023-03-23T00:33:23;100139.66;;;10.89;100.00
56928;BME280;60850;52.502;13.426;2023-03-23T00:35:50;100136.19;;;10.87;100.00
56928;BME280;60850;52.502;13.426;2023-03-23T00:38:18;100141.31;;;10.92;100.00
56928;BME280;60850;52.502;13.426;2023-03-23T00:40:45;100134.31;;;10.89;100.00
56928;BME280;60850;52.502;13.426;2023-03-23T00:43:14;100136.19;;;10.87;100.00
56928;BME280;60850;52.502;13.426;2023-03-23T00:45:42;100136.34;;;10.83;100.00
56928;BME280;60850;52.502;13.426;2023-03-23T00:48:10;100123.16;;;10.78;100.00
56928;BME280;60850;52.502;13.426;2023-03-23T00:50:38;100124.16;;;10.76;100.00
56928;BME280;60850;52.502;13.426;2023-03-23T00:53:05;100121.56;;;10.74;100.00
56928;BME280;60850;52.502;13.426;2023-03-23T00:55:32;100120.78;;;10.70;100.00
56928;BME280;60850;52.502;13.426;2023-03-23T00:57:59;100118.19;;;10.69;100.00
56928;BME280;60850;52.502;13.426;2023-03-23T01:00:28;100119.13;;;10.68;100.00
56928;BME280;60850;52.502;13.426;2023-03-23T01:02:55;100105.94;;;10.63;100.00
56928;BME280;60850;52.502;13.426;2023-03-23T01:05:22;100107.94;;;10.58;100.00
56928;BME280;60850;52.502;13.426;2023-03-23T01:07:49;100108.91;;;10.56;100.00
56928;BME280;60850;52.502;13.426;2023-03-23T01:10:16;100102.78;;;10.54;100.00
56928;BME280;60850;52.502;13.426;2023-03-23T01:12:44;100101.97;;;10.52;100.00
56928;BME280;60850;52.502;13.426;2023-03-23T01:15:16;100105.56;;;10.51;100.00
56928;BME280;60850;52.502;13.426;2023-03-23T01:17:45;100098.72;;;10.43;100.00
56928;BME280;60850;52.502;13.426;2023-03-23T01:20:13;100099.56;;;10.44;100.00
56928;BME280;60850;52.502;13.426;2023-03-23T01:22:41;100097.19;;;10.36;100.00
56928;BME280;60850;52.502;13.426;2023-03-23T01:25:10;100095.44;;;10.35;100.00
56928;BME280;60850;52.502;13.426;2023-03-23T01:27:38;100093.75;;;10.33;100.00
56928;BME280;60850;52.502;13.426;2023-03-23T01:30:06;100086.75;;;10.30;100.00
56928;BME280;60850;52.502;13.426;2023-03-23T01:32:34;100086.84;;;10.27;100.00
56928;BME280;60850;52.502;13.426;2023-03-23T01:35:02;100080.56;;;10.30;100.00
56928;BME280;60850;52.502;13.426;2023-03-23T01:37:30;100076.13;;;10.29;100.00
56928;BME280;60850;52.502;13.426;2023-03-23T01:39:58;100077.81;;;10.31;100.00
56928;BME280;60850;52.502;13.426;2023-03-23T01:42:31;100080.44;;;10.33;100.00
56928;BME280;60850;52.502;13.426;2023-03-23T01:45:25;100081.22;;;10.35;100.00
56928;BME280;60850;52.502;13.426;2023-03-23T01:47:55;100079.50;;;10.34;100.00
56928;BME280;60850;52.502;13.426;2023-03-23T01:50:27;100080.59;;;10.28;100.00
56928;BME280;60850;52.502;13.426;2023-03-23T01:52:56;100076.38;;;10.21;100.00
56928;BME280;60850;52.502;13.426;2023-03-23T01:55:26;100073.72;;;10.23;100.00
56928;BME280;60850;52.502;13.426;2023-03-23T01:57:54;100065.44;;;10.30;100.00
56928;BME280;60850;52.502;13.426;2023-03-23T02:00:22;100059.13;;;10.33;100.00
56928;BME280;60850;52.502;13.426;2023-03-23T02:02:52;100059.81;;;10.38;100.00
56928;BME280;60850;52.502;13.426;2023-03-23T02:05:26;100059.63;;;10.42;100.00
56928;BME280;60850;52.502;13.426;2023-03-23T02:07:57;100056.66;;;10.52;100.00
56928;BME280;60850;52.502;13.426;2023-03-23T02:10:29;100056.53;;;10.55;100.00
56928;BME280;60850;52.502;13.426;2023-03-23T02:12:57;100059.19;;;10.55;100.00
56928;BME280;60850;52.502;13.426;2023-03-23T02:15:25;100053.06;;;10.53;100.00
56928;BME280;60850;52.502;13.426;2023-03-23T02:17:59;100062.91;;;10.51;100.00
56928;BME280;60850;52.502;13.426;2023-03-23T02:20:40;100060.47;;;10.44;100.00
56928;BME280;60850;52.502;13.426;2023-03-23T02:23:30;100057.03;;;10.41;100.00
56928;BME280;60850;52.502;13.426;2023-03-23T02:26:14;100047.03;;;10.48;100.00
56928;BME280;60850;52.502;13.426;2023-03-23T02:29:05;100045.72;;;10.59;100.00
56928;BME280;60850;52.502;13.426;2023-03-23T02:31:43;100045.47;;;10.65;100.00
56928;BME280;60850;52.502;13.426;2023-03-23T02:34:15;100045.06;;;10.76;100.00
56928;BME280;60850;52.502;13.426;2023-03-23T02:36:47;100046.56;;;10.83;100.00
56928;BME280;60850;52.502;13.426;2023-03-23T02:39:20;100038.31;;;10.89;100.00
56928;BME280;60850;52.502;13.426;2023-03-23T02:41:54;100041.69;;;10.94;100.00
56928;BME280;60850;52.502;13.426;2023-03-23T02:44:23;100049.38;;;11.02;100.00
56928;BME280;60850;52.502;13.426;2023-03-23T02:46:54;100062.41;;;11.10;100.00
56928;BME280;60850;52.502;13.426;2023-03-23T02:49:24;100058.63;;;11.15;100.00
56928;BME280;60850;52.502;13.426;2023-03-23T02:51:52;100051.38;;;11.19;100.00
56928;BME280;60850;52.502;13.426;2023-03-23T02:54:20;100047.66;;;11.23;100.00
56928;BME280;60850;52.502;13.426;2023-03-23T02:56:51;100043.06;;;11.26;100.00
56928;BME280;60850;52.502;13.426;2023-03-23T02:59:19;100049.94;;;11.32;100.00
56928;BME280;60850;52.502;13.426;2023-03-23T03:01:56;100040.91;;;11.36;100.00
56928;BME280;60850;52.502;13.426;2023-03-23T03:04:26;100037.16;;;11.40;100.00
56928;BME280;60850;52.502;13.426;2023-03-23T03:09:49;100034.22;;;11.46;100.00
56928;BME280;60850;52.502;13.426;2023-03-23T03:12:23;100035.97;;;11.47;100.00
56928;BME280;60850;52.502;13.426;2023-03-23T03:14:58;100035.00;;;11.50;100.00
56928;BME280;60850;52.502;13.426;2023-03-23T03:17:31;100032.25;;;11.51;100.00
56928;BME280;60850;52.502;13.426;2023-03-23T03:20:02;100025.91;;;11.54;100.00
56928;BME280;60850;52.502;13.426;2023-03-23T03:22:33;100031.19;;;11.55;100.00
56928;BME280;60850;52.502;13.426;2023-03-23T03:25:04;100039.06;;;11.59;100.00
56928;BME280;60850;52.502;13.426;2023-03-23T03:27:32;100030.13;;;11.60;100.00
56928;BME280;60850;52.502;13.426;2023-03-23T03:30:03;100027.47;;;11.60;100.00
56928;BME280;60850;52.502;13.426;2023-03-23T03:32:36;100029.25;;;11.59;100.00
56928;BME280;60850;52.502;13.426;2023-03-23T03:35:07;100035.53;;;11.58;100.00
56928;BME280;60850;52.502;13.426;2023-03-23T03:37:35;100039.06;;;11.59;100.00
56928;BME280;60850;52.502;13.426;2023-03-23T03:40:04;100041.75;;;11.59;100.00
56928;BME280;60850;52.502;13.426;2023-03-23T03:42:37;100035.47;;;11.60;100.00
56928;BME280;60850;52.502;13.426;2023-03-23T03:45:05;100031.94;;;11.59;100.00
56928;BME280;60850;52.502;13.426;2023-03-23T03:47:33;100032.78;;;11.60;100.00
56928;BME280;60850;52.502;13.426;2023-03-23T03:49:59;100031.00;;;11.60;100.00
56928;BME280;60850;52.502;13.426;2023-03-23T03:52:28;100026.53;;;11.61;100.00
56928;BME280;60850;52.502;13.426;2023-03-23T03:54:55;100023.84;;;11.61;100.00
56928;BME280;60850;52.502;13.426;2023-03-23T03:57:22;100029.34;;;11.58;100.00
56928;BME280;60850;52.502;13.426;2023-03-23T03:59:49;100026.72;;;11.56;100.00
56928;BME280;60850;52.502;13.426;2023-03-23T04:02:18;100026.78;;;11.54;100.00
56928;BME280;60850;52.502;13.426;2023-03-23T04:04:46;100026.78;;;11.54;100.00
56928;BME280;60850;52.502;13.426;2023-03-23T04:07:13;100029.50;;;11.53;100.00
56928;BME280;60850;52.502;13.426;2023-03-23T04:09:45;100030.53;;;11.50;100.00
56928;BME280;60850;52.502;13.426;2023-03-23T04:12:13;100032.25;;;11.51;100.00
56928;BME280;60850;52.502;13.426;2023-03-23T04:14:40;100021.56;;;11.51;100.00
56928;BME280;60850;52.502;13.426;2023-03-23T04:17:07;100025.19;;;11.50;100.00
56928;BME280;60850;52.502;13.426;2023-03-23T04:19:36;100010.09;;;11.49;100.00
56928;BME280;60850;52.502;13.426;2023-03-23T04:22:04;100008.34;;;11.48;100.00
56928;BME280;60850;52.502;13.426;2023-03-23T04:24:32;100021.69;;;11.48;100.00
56928;BME280;60850;52.502;13.426;2023-03-23T04:27:02;100016.34;;;11.48;100.00
56928;BME280;60850;52.502;13.426;2023-03-23T04:29:29;100015.56;;;11.46;100.00
56928;BME280;60850;52.502;13.426;2023-03-23T04:31:57;100005.75;;;11.47;100.00
56928;BME280;60850;52.502;13.426;2023-03-23T04:34:23;100004.00;;;11.46;100.00
56928;BME280;60850;52.502;13.426;2023-03-23T04:36:51;100014.63;;;11.47;100.00
56928;BME280;60850;52.502;13.426;2023-03-23T04:39:18;100007.69;;;11.43;100.00
56928;BME280;60850;52.502;13.426;2023-03-23T04:41:45;100007.53;;;11.46;100.00
56928;BME280;60850;52.502;13.426;2023-03-23T04:44:13;100016.50;;;11.45;100.00
56928;BME280;60850;52.502;13.426;2023-03-23T04:46:44;100013.81;;;11.45;100.00
56928;BME280;60850;52.502;13.426;2023-03-23T04:49:15;100028.09;;;11.44;100.00
56928;BME280;60850;52.502;13.426;2023-03-23T04:51:47;100033.50;;;11.43;100.00
56928;BME280;60850;52.502;13.426;2023-03-23T04:54:16;100035.19;;;11.45;100.00
56928;BME280;60850;52.502;13.426;2023-03-23T04:56:43;100034.22;;;11.46;100.00
56928;BME280;60850;52.502;13.426;2023-03-23T04:59:10;100035.84;;;11.50;100.00
56928;BME280;60850;52.502;13.426;2023-03-23T05:01:40;100048.38;;;11.48;100.00
56928;BME280;60850;52.502;13.426;2023-03-23T05:04:10;100044.91;;;11.46;100.00
56928;BME280;60850;52.502;13.426;2023-03-23T05:06:38;100054.72;;;11.46;100.00
56928;BME280;60850;52.502;13.426;2023-03-23T05:09:06;100045.84;;;11.45;100.00
56928;BME280;60850;52.502;13.426;2023-03-23T05:11:33;100044.84;;;11.48;100.00
56928;BME280;60850;52.502;13.426;2023-03-23T05:14:00;100043.03;;;11.48;100.00
56928;BME280;60850;52.502;13.426;2023-03-23T05:16:27;100040.44;;;11.47;100.00
56928;BME280;60850;52.502;13.426;2023-03-23T05:18:55;100037.69;;;11.48;100.00
56928;BME280;60850;52.502;13.426;2023-03-23T05:21:24;100027.16;;;11.45;100.00
56928;BME280;60850;52.502;13.426;2023-03-23T05:23:51;100040.66;;;11.42;100.00
56928;BME280;60850;52.502;13.426;2023-03-23T05:26:20;100034.38;;;11.43;100.00
56928;BME280;60850;52.502;13.426;2023-03-23T05:28:47;100044.13;;;11.44;100.00
56928;BME280;60850;52.502;13.426;2023-03-23T05:31:18;100045.06;;;11.43;100.00
56928;BME280;60850;52.502;13.426;2023-03-23T05:33:45;100055.81;;;11.42;100.00
56928;BME280;60850;52.502;13.426;2023-03-23T05:36:13;100049.56;;;11.41;100.00
56928;BME280;60850;52.502;13.426;2023-03-23T05:38:41;100060.19;;;11.43;100.00
56928;BME280;60850;52.502;13.426;2023-03-23T05:41:11;100061.94;;;11.44;100.00
56928;BME280;60850;52.502;13.426;2023-03-23T05:43:38;100061.13;;;11.42;100.00
56928;BME280;60850;52.502;13.426;2023-03-23T05:46:05;100065.66;;;11.40;100.00
56928;BME280;60850;52.502;13.426;2023-03-23T05:48:32;100065.72;;;11.38;100.00
56928;BME280;60850;52.502;13.426;2023-03-23T05:50:59;100059.44;;;11.39;100.00
56928;BME280;60850;52.502;13.426;2023-03-23T05:53:28;100063.97;;;11.37;100.00
56928;BME280;60850;52.502;13.426;2023-03-23T05:55:58;100065.03;;;11.33;100.00
56928;BME280;60850;52.502;13.426;2023-03-23T05:58:26;100070.25;;;11.36;100.00
56928;BME280;60850;52.502;13.426;2023-03-23T06:00:53;100061.56;;;11.31;100.00
56928;BME280;60850;52.502;13.426;2023-03-23T06:03:20;100069.56;;;11.31;100.00
56928;BME280;60850;52.502;13.426;2023-03-23T06:05:48;100076.88;;;11.26;100.00
56928;BME280;60850;52.502;13.426;2023-03-23T06:08:15;100081.34;;;11.25;100.00
56928;BME280;60850;52.502;13.426;2023-03-23T06:10:44;100077.94;;;11.22;100.00
56928;BME280;60850;52.502;13.426;2023-03-23T06:13:11;100082.41;;;11.21;100.00
56928;BME280;60850;52.502;13.426;2023-03-23T06:15:38;100083.22;;;11.23;100.00
56928;BME280;60850;52.502;13.426;2023-03-23T06:18:06;100085.13;;;11.20;100.00
56928;BME280;60850;52.502;13.426;2023-03-23T06:20:33;100090.66;;;11.15;100.00
56928;BME280;60850;52.502;13.426;2023-03-23T06:23:00;100085.41;;;11.12;100.00
56928;BME280;60850;52.502;13.426;2023-03-23T06:25:29;100089.66;;;11.18;100.00
56928;BME280;60850;52.502;13.426;2023-03-23T06:27:57;100096.72;;;11.19;100.00
56928;BME280;60850;52.502;13.426;2023-03-23T06:30:24;100095.84;;;11.18;100.00
56928;BME280;60850;52.502;13.426;2023-03-23T06:33:05;100101.25;;;11.17;100.00
56928;BME280;60850;52.502;13.426;2023-03-23T06:35:35;100100.97;;;11.24;100.00
56928;BME280;60850;52.502;13.426;2023-03-23T06:38:02;100102.81;;;11.22;100.00
56928;BME280;60850;52.502;13.426;2023-03-23T06:40:30;100097.50;;;11.22;100.00
56928;BME280;60850;52.502;13.426;2023-03-23T06:42:58;100106.44;;;11.21;100.00
56928;BME280;60850;52.502;13.426;2023-03-23T06:45:25;100109.91;;;11.23;100.00
56928;BME280;60850;52.502;13.426;2023-03-23T06:47:52;100109.97;;;11.22;100.00
56928;BME280;60850;52.502;13.426;2023-03-23T06:50:19;100110.47;;;11.32;100.00
56928;BME280;60850;52.502;13.426;2023-03-23T06:52:47;100107.63;;;11.36;100.00
56928;BME280;60850;52.502;13.426;2023-03-23T06:55:14;100112.66;;;11.44;100.00
56928;BME280;60850;52.502;13.426;2023-03-23T06:57:42;100110.59;;;11.50;100.00
56928;BME280;60850;52.502;13.426;2023-03-23T07:00:13;100111.34;;;11.54;100.00
56928;BME280;60850;52.502;13.426;2023-03-23T07:02:41;100114.63;;;11.61;100.00
56928;BME280;60850;52.502;13.426;2023-03-23T07:05:08;100108.97;;;11.68;100.00
56928;BME280;60850;52.502;13.426;2023-03-23T07:07:36;100117.59;;;11.75;100.00
56928;BME280;60850;52.502;13.426;2023-03-23T07:10:05;100112.94;;;11.80;100.00
56928;BME280;60850;52.502;13.426;2023-03-23T07:12:32;100104.94;;;11.80;100.00
56928;BME280;60850;52.502;13.426;2023-03-23T07:15:01;100118.44;;;11.77;100.00
56928;BME280;60850;52.502;13.426;2023-03-23T07:17:29;100113.94;;;11.77;100.00
56928;BME280;60850;52.502;13.426;2023-03-23T07:19:57;100113.00;;;11.78;100.00
56928;BME280;60850;52.502;13.426;2023-03-23T07:22:24;100091.66;;;11.78;100.00
56928;BME280;60850;52.502;13.426;2023-03-23T07:24:51;100092.47;;;11.80;100.00
56928;BME280;60850;52.502;13.426;2023-03-23T07:27:18;100080.69;;;11.86;100.00
56928;BME280;60850;52.502;13.426;2023-03-23T07:29:45;100094.97;;;11.85;100.00
56928;BME280;60850;52.502;13.426;2023-03-23T07:32:12;100100.16;;;11.88;100.00
56928;BME280;60850;52.502;13.426;2023-03-23T07:34:40;100107.94;;;11.94;100.00
56928;BME280;60850;52.502;13.426;2023-03-23T07:37:08;100100.53;;;12.01;100.00
56928;BME280;60850;52.502;13.426;2023-03-23T07:39:35;100085.97;;;12.08;100.00
56928;BME280;60850;52.502;13.426;2023-03-23T07:42:02;100084.22;;;12.07;100.00
56928;BME280;60850;52.502;13.426;2023-03-23T07:44:29;100091.38;;;12.06;100.00
56928;BME280;60850;52.502;13.426;2023-03-23T07:46:56;100095.00;;;12.05;100.00
56928;BME280;60850;52.502;13.426;2023-03-23T07:49:23;100090.44;;;12.07;100.00
56928;BME280;60850;52.502;13.426;2023-03-23T07:51:53;100074.88;;;12.17;100.00
56928;BME280;60850;52.502;13.426;2023-03-23T07:54:21;100057.28;;;12.32;100.00
56928;BME280;60850;52.502;13.426;2023-03-23T07:56:48;100062.09;;;12.44;100.00
56928;BME280;60850;52.502;13.426;2023-03-23T07:59:15;100054.94;;;12.45;100.00
56928;BME280;60850;52.502;13.426;2023-03-23T08:01:42;100021.59;;;12.33;100.00
56928;BME280;60850;52.502;13.426;2023-03-23T08:04:09;100046.56;;;12.33;100.00
56928;BME280;60850;52.502;13.426;2023-03-23T08:06:36;100044.59;;;12.37;100.00
56928;BME280;60850;52.502;13.426;2023-03-23T08:09:06;100066.06;;;12.35;100.00
56928;BME280;60850;52.502;13.426;2023-03-23T08:11:34;100079.88;;;12.45;100.00
56928;BME280;60850;52.502;13.426;2023-03-23T08:14:01;100090.28;;;12.51;100.00
56928;BME280;60850;52.502;13.426;2023-03-23T08:16:28;100095.44;;;12.56;100.00
56928;BME280;60850;52.502;13.426;2023-03-23T08:18:55;100096.81;;;12.64;100.00
56928;BME280;60850;52.502;13.426;2023-03-23T08:21:23;100096.41;;;12.74;100.00
56928;BME280;60850;52.502;13.426;2023-03-23T08:23:52;100099.81;;;12.77;100.00
56928;BME280;60850;52.502;13.426;2023-03-23T08:26:20;100093.31;;;12.83;100.00
56928;BME280;60850;52.502;13.426;2023-03-23T08:28:47;100091.34;;;12.86;100.00
56928;BME280;60850;52.502;13.426;2023-03-23T08:31:14;100097.44;;;12.90;100.00
56928;BME280;60850;52.502;13.426;2023-03-23T08:33:42;100101.34;;;12.83;100.00
56928;BME280;60850;52.502;13.426;2023-03-23T08:36:09;100100.81;;;12.75;100.00
56928;BME280;60850;52.502;13.426;2023-03-23T08:38:36;100100.28;;;12.67;100.00
56928;BME280;60850;52.502;13.426;2023-03-23T08:41:05;100094.22;;;12.63;100.00
56928;BME280;60850;52.502;13.426;2023-03-23T08:43:35;100083.72;;;12.58;100.00
56928;BME280;60850;52.502;13.426;2023-03-23T08:46:03;100072.75;;;12.64;100.00
56928;BME280;60850;52.502;13.426;2023-03-23T08:48:35;100071.34;;;12.76;100.00
56928;BME280;60850;52.502;13.426;2023-03-23T08:51:02;100089.09;;;12.96;100.00
56928;BME280;60850;52.502;13.426;2023-03-23T08:53:30;100103.66;;;13.09;100.00
56928;BME280;60850;52.502;13.426;2023-03-23T08:56:03;100106.84;;;13.17;100.00
56928;BME280;60850;52.502;13.426;2023-03-23T08:58:30;100103.91;;;13.24;100.00
56928;BME280;60850;52.502;13.426;2023-03-23T09:00:58;100113.47;;;13.29;100.00
56928;BME280;60850;52.502;13.426;2023-03-23T09:03:25;100104.34;;;13.33;100.00
56928;BME280;60850;52.502;13.426;2023-03-23T09:05:52;100097.59;;;13.43;100.00
56928;BME280;60850;52.502;13.426;2023-03-23T09:08:19;100101.16;;;13.97;100.00
56928;BME280;60850;52.502;13.426;2023-03-23T09:10:46;100106.78;;;14.45;100.00
56928;BME280;60850;52.502;13.426;2023-03-23T09:13:15;100116.56;;;14.46;100.00
56928;BME280;60850;52.502;13.426;2023-03-23T09:15:42;100119.38;;;14.43;100.00
56928;BME280;60850;52.502;13.426;2023-03-23T09:18:11;100118.44;;;14.26;100.00
56928;BME280;60850;52.502;13.426;2023-03-23T09:20:38;100115.59;;;14.12;100.00
56928;BME280;60850;52.502;13.426;2023-03-23T09:23:05;100106.22;;;14.04;100.00
56928;BME280;60850;52.502;13.426;2023-03-23T09:25:32;100099.34;;;13.98;100.00
56928;BME280;60850;52.502;13.426;2023-03-23T09:27:59;100092.75;;;14.05;100.00
56928;BME280;60850;52.502;13.426;2023-03-23T09:30:29;100094.00;;;14.15;100.00
56928;BME280;60850;52.502;13.426;2023-03-23T09:32:57;100086.59;;;14.38;100.00
56928;BME280;60850;52.502;13.426;2023-03-23T09:35:28;100094.31;;;14.61;100.00
56928;BME280;60850;52.502;13.426;2023-03-23T09:37:57;100092.09;;;14.85;100.00
56928;BME280;60850;52.502;13.426;2023-03-23T09:40:29;100100.66;;;15.09;100.00
56928;BME280;60850;52.502;13.426;2023-03-23T09:43:17;100101.78;;;15.36;100.00
56928;BME280;60850;52.502;13.426;2023-03-23T09:45:51;100103.00;;;15.62;100.00
56928;BME280;60850;52.502;13.426;2023-03-23T09:48:35;100110.53;;;15.87;100.00
56928;BME280;60850;52.502;13.426;2023-03-23T09:51:15;100100.91;;;16.13;100.00
56928;BME280;60850;52.502;13.426;2023-03-23T09:53:49;100109.56;;;16.18;100.00
56928;BME280;60850;52.502;13.426;2023-03-23T09:56:17;100107.56;;;16.22;100.00
56928;BME280;60850;52.502;13.426;2023-03-23T09:58:50;100115.00;;;16.33;100.00
56928;BME280;60850;52.502;13.426;2023-03-23T10:01:22;100110.19;;;16.38;100.00
56928;BME280;60850;52.502;13.426;2023-03-23T10:03:55;100102.50;;;16.32;100.00
56928;BME280;60850;52.502;13.426;2023-03-23T10:06:27;100101.41;;;16.20;100.00
56928;BME280;60850;52.502;13.426;2023-03-23T10:08:57;100104.56;;;16.12;100.00
56928;BME280;60850;52.502;13.426;2023-03-23T10:11:31;100109.78;;;16.00;100.00
56928;BME280;60850;52.502;13.426;2023-03-23T10:14:21;100114.53;;;15.80;100.00
56928;BME280;60850;52.502;13.426;2023-03-23T10:16:58;100109.09;;;15.66;100.00
56928;BME280;60850;52.502;13.426;2023-03-23T10:19:31;100108.44;;;15.77;100.00
56928;BME280;60850;52.502;13.426;2023-03-23T10:22:04;100111.84;;;15.80;100.00
56928;BME280;60850;52.502;13.426;2023-03-23T10:24:36;100094.56;;;15.84;100.00
56928;BME280;60850;52.502;13.426;2023-03-23T10:27:17;100091.84;;;16.00;100.00
56928;BME280;60850;52.502;13.426;2023-03-23T10:29:49;100091.84;;;16.00;100.00
56928;BME280;60850;52.502;13.426;2023-03-23T10:32:21;100090.66;;;16.20;100.00
56928;BME280;60850;52.502;13.426;2023-03-23T10:34:53;100090.66;;;16.20;100.00
56928;BME280;60850;52.502;13.426;2023-03-23T10:37:26;59410.25;;;-144.60;100.00
56928;BME280;60850;52.502;13.426;2023-03-23T10:39:55;59410.25;;;-144.60;100.00
56928;BME280;60850;52.502;13.426;2023-03-23T10:42:24;59410.25;;;-144.60;100.00
56928;BME280;60850;52.502;13.426;2023-03-23T10:44:52;59410.25;;;-144.60;100.00
56928;BME280;60850;52.502;13.426;2023-03-23T10:47:19;59410.25;;;-144.60;100.00
56928;BME280;60850;52.502;13.426;2023-03-23T10:49:49;59410.25;;;-144.60;100.00
56928;BME280;60850;52.502;13.426;2023-03-23T10:52:30;59410.25;;;-144.60;100.00
56928;BME280;60850;52.502;13.426;2023-03-23T10:55:04;59410.25;;;-144.60;100.00
56928;BME280;60850;52.502;13.426;2023-03-23T10:57:36;59410.25;;;-144.60;100.00
56928;BME280;60850;52.502;13.426;2023-03-23T11:00:06;59410.25;;;-144.60;100.00
56928;BME280;60850;52.502;13.426;2023-03-23T11:02:40;59410.25;;;-144.60;100.00
56928;BME280;60850;52.502;13.426;2023-03-23T11:05:16;59410.25;;;-144.60;100.00
56928;BME280;60850;52.502;13.426;2023-03-23T11:07:52;59410.25;;;-144.60;100.00
56928;BME280;60850;52.502;13.426;2023-03-23T11:10:22;59410.25;;;-144.60;100.00
56928;BME280;60850;52.502;13.426;2023-03-23T11:12:51;59410.25;;;-144.60;100.00
56928;BME280;60850;52.502;13.426;2023-03-23T11:15:29;59410.25;;;-144.60;100.00
56928;BME280;60850;52.502;13.426;2023-03-23T11:17:58;59410.25;;;-144.60;100.00
56928;BME280;60850;52.502;13.426;2023-03-23T11:20:27;59410.25;;;-144.60;100.00
56928;BME280;60850;52.502;13.426;2023-03-23T11:22:56;59410.25;;;-144.60;100.00
56928;BME280;60850;52.502;13.426;2023-03-23T11:25:23;59410.25;;;-144.60;100.00
56928;BME280;60850;52.502;13.426;2023-03-23T11:27:52;59410.25;;;-144.60;100.00
56928;BME280;60850;52.502;13.426;2023-03-23T11:30:25;59410.25;;;-144.60;100.00
56928;BME280;60850;52.502;13.426;2023-03-23T11:32:54;59410.25;;;-144.60;100.00
56928;BME280;60850;52.502;13.426;2023-03-23T11:35:25;59410.25;;;-144.60;100.00
56928;BME280;60850;52.502;13.426;2023-03-23T11:37:53;59410.25;;;-144.60;100.00
56928;BME280;60850;52.502;13.426;2023-03-23T11:40:25;59410.25;;;-144.60;100.00
56928;BME280;60850;52.502;13.426;2023-03-23T11:43:00;59410.25;;;-144.60;100.00
56928;BME280;60850;52.502;13.426;2023-03-23T11:45:33;59410.25;;;-144.60;100.00
56928;BME280;60850;52.502;13.426;2023-03-23T11:48:17;59410.25;;;-144.60;100.00
56928;BME280;60850;52.502;13.426;2023-03-23T11:50:50;59410.25;;;-144.60;100.00
56928;BME280;60850;52.502;13.426;2023-03-23T11:53:34;59410.25;;;-144.60;100.00
56928;BME280;60850;52.502;13.426;2023-03-23T11:56:11;59410.25;;;-144.60;100.00
56928;BME280;60850;52.502;13.426;2023-03-23T11:58:39;59410.25;;;-144.60;100.00
56928;BME280;60850;52.502;13.426;2023-03-23T12:01:13;59410.25;;;-144.60;100.00
56928;BME280;60850;52.502;13.426;2023-03-23T12:03:58;59410.25;;;-144.60;100.00
56928;BME280;60850;52.502;13.426;2023-03-23T12:06:35;59410.25;;;-144.60;100.00
56928;BME280;60850;52.502;13.426;2023-03-23T12:09:15;59410.25;;;-144.60;100.00
56928;BME280;60850;52.502;13.426;2023-03-23T12:11:55;59410.25;;;-144.60;100.00
56928;BME280;60850;52.502;13.426;2023-03-23T12:14:30;59410.25;;;-144.60;100.00
56928;BME280;60850;52.502;13.426;2023-03-23T12:17:11;59410.25;;;-144.60;100.00
56928;BME280;60850;52.502;13.426;2023-03-23T12:19:50;59410.25;;;-144.60;100.00
56928;BME280;60850;52.502;13.426;2023-03-23T12:22:31;59410.25;;;-144.60;100.00
56928;BME280;60850;52.502;13.426;2023-03-23T12:25:14;59410.25;;;-144.60;100.00
56928;BME280;60850;52.502;13.426;2023-03-23T12:27:47;59410.25;;;-144.60;100.00
56928;BME280;60850;52.502;13.426;2023-03-23T12:30:28;59410.25;;;-144.60;100.00
56928;BME280;60850;52.502;13.426;2023-03-23T12:33:13;59410.25;;;-144.60;100.00
56928;BME280;60850;52.502;13.426;2023-03-23T12:35:51;59410.25;;;-144.60;100.00
56928;BME280;60850;52.502;13.426;2023-03-23T12:38:36;59410.25;;;-144.60;100.00
56928;BME280;60850;52.502;13.426;2023-03-23T12:41:14;59410.25;;;-144.60;100.00
56928;BME280;60850;52.502;13.426;2023-03-23T12:43:48;59410.25;;;-144.60;100.00
56928;BME280;60850;52.502;13.426;2023-03-23T12:49:20;59410.25;;;-144.60;100.00